createdAt,value
2022-08-17T00:01:13.576Z,99836.97
2022-08-17T00:05:18.141Z,99834.28
2022-08-17T00:09:19.699Z,99839.50
2022-08-17T00:13:30.329Z,99830.75
2022-08-17T00:17:31.997Z,99843.97
2022-08-17T00:22:29.621Z,99837.19
2022-08-17T00:25:56.826Z,99828.69
2022-08-17T00:29:58.375Z,99830.47
2022-08-17T00:34:00.156Z,99831.38
2022-08-17T00:38:01.884Z,99833.25
2022-08-17T00:42:16.128Z,99823.78
2022-08-17T00:46:21.544Z,99822.13
2022-08-17T00:50:23.122Z,99833.47
2022-08-17T00:54:42.024Z,99824.84
2022-08-17T00:58:44.619Z,99836.28
2022-08-17T01:02:48.258Z,99832.31
2022-08-17T01:06:50.934Z,99829.84
2022-08-17T01:10:58.196Z,99826.56
2022-08-17T01:15:05.762Z,99824.94
2022-08-17T01:19:16.971Z,99821.41
2022-08-17T01:23:21.287Z,99817.06
2022-08-17T01:27:24.096Z,99815.28
2022-08-17T01:31:30.235Z,99810.06
2022-08-17T01:35:32.009Z,99817.00
2022-08-17T01:39:44.625Z,99820.47
2022-08-17T01:43:51.884Z,99826.56
2022-08-17T01:47:54.467Z,99825.88
2022-08-17T01:51:56.850Z,99826.09
2022-08-17T01:56:07.704Z,99825.38
2022-08-17T02:00:10.678Z,99826.22
2022-08-17T02:04:12.901Z,99823.81
2022-08-17T02:08:19.776Z,99824.69
2022-08-17T02:12:38.515Z,99822.25
2022-08-17T02:16:42.152Z,99822.31
2022-08-17T02:20:43.724Z,99819.66
2022-08-17T02:25:00.888Z,99827.47
2022-08-17T02:29:04.195Z,99825.81
2022-08-17T02:33:09.310Z,99827.63
2022-08-17T02:37:11.214Z,99825.16
2022-08-17T02:41:13.250Z,99824.28
2022-08-17T02:45:19.226Z,99819.91
2022-08-17T02:49:20.735Z,99822.50
2022-08-17T02:53:22.554Z,99821.81
2022-08-17T02:57:24.215Z,99833.13
2022-08-17T03:01:25.899Z,99826.09
2022-08-17T03:05:30.114Z,99822.56
2022-08-17T03:09:32.336Z,99824.34
2022-08-17T03:13:34.052Z,99821.78
2022-08-17T03:17:35.862Z,99813.13
2022-08-17T03:21:37.409Z,99823.63
2022-08-17T03:25:43.387Z,99814.09
2022-08-17T03:29:45.913Z,99815.00
2022-08-17T03:33:48.046Z,99802.03
2022-08-17T03:37:52.423Z,99815.94
2022-08-17T03:42:31.407Z,99823.75
2022-08-17T03:46:53.113Z,99835.13
2022-08-17T03:51:15.391Z,99843.81
2022-08-17T03:55:36.422Z,99851.56
2022-08-17T03:59:39.137Z,99874.06
2022-08-17T04:03:40.788Z,99897.41
2022-08-17T04:07:42.455Z,99887.81
2022-08-17T04:11:44.092Z,99917.25
2022-08-17T04:15:49.006Z,99871.22
2022-08-17T04:19:50.625Z,99890.31
2022-08-17T04:23:52.317Z,99864.13
2022-08-17T04:27:55.125Z,99906.69
2022-08-17T04:31:58.030Z,99898.88
2022-08-17T04:36:02.396Z,99904.38
2022-08-17T04:40:22.923Z,99904.38
2022-08-17T04:44:36.886Z,99896.44
2022-08-17T04:48:42.669Z,99913.91
2022-08-17T04:52:47.130Z,99925.00
2022-08-17T04:56:49.079Z,99916.94
2022-08-17T05:00:50.827Z,99914.13
2022-08-17T05:04:52.407Z,99927.31
2022-08-17T05:08:54.209Z,99941.19
2022-08-17T05:13:29.773Z,99928.88
2022-08-17T05:17:31.294Z,99923.47
2022-08-17T05:21:32.963Z,99909.50
2022-08-17T05:25:40.965Z,99898.94
2022-08-17T05:29:42.609Z,99900.69
2022-08-17T05:33:46.343Z,99894.41
2022-08-17T05:37:48.229Z,99914.91
2022-08-17T05:41:49.789Z,99920.59
2022-08-17T05:46:05.941Z,99929.19
2022-08-17T05:50:09.733Z,99920.47
2022-08-17T05:54:26.396Z,99910.16
2022-08-17T05:58:32.454Z,99906.72
2022-08-17T06:03:04.861Z,99909.47
2022-08-17T06:07:09.084Z,99913.94
2022-08-17T06:11:22.780Z,99912.84
2022-08-17T06:15:59.884Z,99904.63
2022-08-17T06:20:08.806Z,99902.09
2022-08-17T06:24:34.186Z,99923.91
2022-08-17T06:28:51.619Z,99935.34
2022-08-17T06:32:56.134Z,99932.97
2022-08-17T06:37:23.704Z,99943.63
2022-08-17T06:41:38.125Z,99929.84
2022-08-17T06:45:54.171Z,99913.28
2022-08-17T06:50:14.523Z,99919.28
2022-08-17T06:54:20.600Z,99943.53
2022-08-17T06:58:29.542Z,99952.94
2022-08-17T07:03:06.675Z,99950.28
2022-08-17T07:07:29.140Z,99940.66
2022-08-17T07:11:48.051Z,99926.06
2022-08-17T07:15:56.917Z,99939.06
2022-08-17T07:20:06.318Z,99947.63
2022-08-17T07:24:49.678Z,99967.41
2022-08-17T07:28:51.498Z,99968.94
2022-08-17T07:33:02.432Z,99963.69
2022-08-17T07:37:05.444Z,99947.94
2022-08-17T07:41:10.660Z,99950.38
2022-08-17T07:45:34.618Z,99936.16
2022-08-17T07:49:40.321Z,99949.66
2022-08-17T07:53:42.148Z,99954.84
2022-08-17T07:57:55.597Z,99960.84
2022-08-17T08:01:58.126Z,99955.50
2022-08-17T08:06:02.346Z,99944.38
2022-08-17T08:10:15.149Z,99948.16
2022-08-17T08:14:28.362Z,99968.28
2022-08-17T08:18:56.052Z,99975.22
2022-08-17T08:23:10.655Z,99964.59
2022-08-17T08:27:45.764Z,99961.91
2022-08-17T08:32:05.624Z,99968.66
2022-08-17T08:37:12.792Z,99927.38
2022-08-17T08:41:32.939Z,99934.22
2022-08-17T08:45:57.798Z,99988.19
2022-08-17T08:50:37.291Z,99980.94
2022-08-17T08:54:58.349Z,99963.97
2022-08-17T08:59:17.798Z,99941.03
2022-08-17T09:03:51.499Z,99947.41
2022-08-17T09:08:25.348Z,99934.94
2022-08-17T09:12:54.035Z,99921.22
2022-08-17T09:17:03.440Z,99928.31
2022-08-17T09:21:18.257Z,99973.94
2022-08-17T09:25:26.913Z,99979.34
2022-08-17T09:29:35.136Z,99982.38
2022-08-17T09:33:42.988Z,99986.53
2022-08-17T09:38:01.803Z,100003.63
2022-08-17T09:42:22.744Z,100010.97
2022-08-17T09:47:07.467Z,99995.56
2022-08-17T09:51:28.060Z,99996.38
2022-08-17T09:55:42.623Z,100017.28
2022-08-17T10:00:11.914Z,100024.59
2022-08-17T10:04:53.687Z,100032.16
2022-08-17T10:09:04.499Z,100042.59
2022-08-17T10:13:13.702Z,100049.88
2022-08-17T10:17:41.560Z,100062.25
2022-08-17T10:22:19.331Z,100065.81
2022-08-17T10:26:40.379Z,100060.56
2022-08-17T10:31:16.576Z,100072.50
2022-08-17T10:35:37.099Z,100061.59
2022-08-17T10:40:00.039Z,100056.84
2022-08-17T10:44:37.131Z,100049.66
2022-08-17T10:48:37.328Z,100062.31
2022-08-17T10:52:41.901Z,100060.06
2022-08-17T10:56:46.864Z,100061.09
2022-08-17T11:00:54.223Z,100057.28
2022-08-17T11:05:17.391Z,100066.75
2022-08-17T11:09:27.927Z,100076.03
2022-08-17T11:13:52.023Z,100071.78
2022-08-17T11:18:29.628Z,100060.06
2022-08-17T11:22:55.611Z,100083.13
2022-08-17T11:27:21.437Z,100065.09
2022-08-17T11:31:37.926Z,100067.88
2022-08-17T11:35:51.200Z,100062.47
2022-08-17T11:40:01.634Z,100063.63
2022-08-17T11:44:17.268Z,100060.53
2022-08-17T11:49:11.944Z,100065.84
2022-08-17T11:53:39.301Z,100070.38
2022-08-17T11:57:40.787Z,100074.28
2022-08-17T12:01:55.668Z,100067.66
2022-08-17T12:06:30.382Z,100069.84
2022-08-17T12:10:35.429Z,100060.75
2022-08-17T12:15:08.105Z,100052.38
2022-08-17T12:19:03.639Z,100017.72
2022-08-17T12:23:20.305Z,100022.50
2022-08-17T12:27:47.626Z,100020.28
2022-08-17T12:31:56.140Z,100031.56
2022-08-17T12:36:05.337Z,100013.19
2022-08-17T12:40:18.605Z,100017.06
2022-08-17T12:44:50.252Z,100005.59
2022-08-17T12:48:59.303Z,100011.09
2022-08-17T12:53:02.771Z,100018.63
2022-08-17T12:57:12.540Z,100008.00
2022-08-17T13:01:16.398Z,100010.22
2022-08-17T13:05:28.960Z,100006.97
2022-08-17T13:09:36.060Z,99987.59
2022-08-17T13:13:50.711Z,99985.44
2022-08-17T13:18:03.807Z,99994.78
2022-08-17T13:22:11.062Z,99993.91
2022-08-17T13:26:15.801Z,99984.38
2022-08-17T13:30:28.158Z,99968.81
2022-08-17T13:34:29.689Z,99977.16
2022-08-17T13:38:49.510Z,99983.56
2022-08-17T13:42:54.136Z,99973.56
2022-08-17T13:46:57.050Z,99967.28
2022-08-17T13:50:59.481Z,99950.44
2022-08-17T13:55:14.804Z,99955.59
2022-08-17T13:59:36.092Z,99939.94
2022-08-17T14:03:52.882Z,99930.50
2022-08-17T14:08:00.753Z,99924.28
2022-08-17T14:12:05.674Z,99921.91
2022-08-17T14:16:07.480Z,99923.06
2022-08-17T14:20:12.324Z,99903.16
2022-08-17T14:24:34.535Z,99904.22
2022-08-17T14:28:38.619Z,99900.91
2022-08-17T14:32:57.911Z,99903.75
2022-08-17T14:36:59.462Z,99896.56
2022-08-17T14:41:01.114Z,99896.38
2022-08-17T14:45:06.080Z,99895.63
2022-08-17T14:49:08.937Z,99890.09
2022-08-17T14:53:15.155Z,99896.78
2022-08-17T14:57:23.438Z,99880.84
2022-08-17T15:01:36.741Z,99887.28
2022-08-17T15:05:39.503Z,99886.00
2022-08-17T15:09:41.374Z,99884.63
2022-08-17T15:13:52.573Z,99885.50
2022-08-17T15:17:54.976Z,99885.13
2022-08-17T15:21:56.934Z,99885.59
2022-08-17T15:26:00.205Z,99875.94
2022-08-17T15:30:04.899Z,99880.13
2022-08-17T15:34:13.173Z,99878.13
2022-08-17T15:38:18.610Z,99886.78
2022-08-17T15:42:26.512Z,99876.25
2022-08-17T15:46:50.412Z,99873.19
2022-08-17T15:50:52.470Z,99866.13
2022-08-17T15:55:02.891Z,99868.66
2022-08-17T15:59:05.171Z,99877.66
2022-08-17T16:03:45.507Z,99872.50
2022-08-17T16:07:44.652Z,99875.16
2022-08-17T16:11:56.710Z,99875.50
2022-08-17T16:16:01.891Z,99863.03
2022-08-17T16:20:08.638Z,99863.97
2022-08-17T16:24:12.838Z,99869.75
2022-08-17T16:28:36.081Z,99868.13
2022-08-17T16:32:41.931Z,99859.63
2022-08-17T16:36:55.583Z,99855.66
2022-08-17T16:41:03.537Z,99861.41
2022-08-17T16:45:29.137Z,99863.59
2022-08-17T16:49:37.211Z,99865.00
2022-08-17T16:53:47.102Z,99870.59
2022-08-17T16:58:12.105Z,99866.84
2022-08-17T17:02:26.688Z,99864.59
2022-08-17T17:06:49.845Z,99848.44
2022-08-17T17:10:57.196Z,99840.19
2022-08-17T17:15:02.864Z,99839.66
2022-08-17T17:19:41.391Z,99846.22
2022-08-17T17:23:59.799Z,99834.63
2022-08-17T17:28:19.851Z,99833.34
2022-08-17T17:32:41.404Z,99838.22
2022-08-17T17:37:11.513Z,99833.59
2022-08-17T17:41:30.010Z,99828.84
2022-08-17T17:45:37.936Z,99828.56
2022-08-17T17:49:50.392Z,99824.72
2022-08-17T17:54:07.277Z,99819.94
2022-08-17T17:58:19.749Z,99825.75
2022-08-17T18:02:43.017Z,99811.31
2022-08-17T18:06:56.313Z,99811.88
2022-08-17T18:11:25.212Z,99808.00
2022-08-17T18:15:38.188Z,99809.31
2022-08-17T18:19:48.010Z,99815.00
2022-08-17T18:24:00.414Z,99826.69
2022-08-17T18:28:08.033Z,99827.94
2022-08-17T18:32:33.666Z,99825.00
2022-08-17T18:36:39.864Z,99850.84
2022-08-17T18:40:52.918Z,99857.31
2022-08-17T18:44:56.895Z,99859.34
2022-08-17T18:49:07.657Z,99858.84
2022-08-17T18:53:37.919Z,99842.56
2022-08-17T18:57:43.398Z,99862.19
2022-08-17T19:01:59.941Z,99866.09
2022-08-17T19:06:27.795Z,99878.06
2022-08-17T19:10:46.445Z,99889.13
2022-08-17T19:14:52.826Z,99889.84
2022-08-17T19:19:20.554Z,99889.44
2022-08-17T19:23:35.566Z,99903.41
2022-08-17T19:27:49.969Z,99904.97
2022-08-17T19:32:01.190Z,99912.63
2022-08-17T19:36:26.440Z,99892.66
2022-08-17T19:40:53.516Z,99897.97
2022-08-17T19:45:21.690Z,99901.56
2022-08-17T19:50:02.176Z,99902.53
2022-08-17T19:54:20.677Z,99900.91
2022-08-17T19:58:49.958Z,99899.22
2022-08-17T20:03:19.258Z,99896.81
2022-08-17T20:07:30.386Z,99914.56
2022-08-17T20:11:46.658Z,99899.88
2022-08-17T20:15:50.749Z,99906.19
2022-08-17T20:20:01.303Z,99904.59
2022-08-17T20:24:48.030Z,99908.34
2022-08-17T20:29:19.289Z,99906.88
2022-08-17T20:33:39.926Z,99897.75
2022-08-17T20:37:52.981Z,99891.69
2022-08-17T20:42:21.906Z,99903.97
2022-08-17T20:46:31.319Z,99915.47
2022-08-17T20:50:38.943Z,99925.09
2022-08-17T20:54:53.259Z,99919.97
2022-08-17T20:59:04.849Z,99912.31
2022-08-17T21:03:26.873Z,99911.59
2022-08-17T21:07:42.976Z,99912.53
2022-08-17T21:12:04.514Z,99909.06
2022-08-17T21:16:26.017Z,99919.59
2022-08-17T21:20:40.284Z,99924.94
2022-08-17T21:25:03.594Z,99934.66
2022-08-17T21:29:32.286Z,99929.50
2022-08-17T21:33:39.713Z,99929.53
2022-08-17T21:37:53.279Z,99924.38
2022-08-17T21:41:57.096Z,99928.78
2022-08-17T21:46:10.971Z,99932.31
2022-08-17T21:50:26.158Z,99934.94
2022-08-17T21:54:41.883Z,99957.03
2022-08-17T21:58:48.699Z,99967.88
2022-08-17T22:03:09.307Z,99961.09
2022-08-17T22:07:13.733Z,99967.25
2022-08-17T22:11:17.164Z,99968.25
2022-08-17T22:15:23.204Z,99958.63
2022-08-17T22:19:25.260Z,99974.31
2022-08-17T22:24:09.548Z,99976.94
2022-08-17T22:28:14.719Z,99984.78
2022-08-17T22:32:35.173Z,99997.75
2022-08-17T22:36:42.978Z,100004.69
2022-08-17T22:41:18.029Z,100036.84
2022-08-17T22:45:20.270Z,100054.28
2022-08-17T22:49:30.988Z,100063.91
2022-08-17T22:53:53.643Z,100069.13
2022-08-17T22:58:27.928Z,100079.53
2022-08-17T23:02:33.874Z,100077.75
2022-08-17T23:06:42.723Z,100086.38
2022-08-17T23:10:48.668Z,100079.44
2022-08-17T23:15:03.302Z,100085.63
2022-08-17T23:19:09.996Z,100093.56
2022-08-17T23:23:25.843Z,100091.06
2022-08-17T23:27:40.817Z,100089.38
2022-08-17T23:31:49.245Z,100098.22
2022-08-17T23:35:51.425Z,100093.09
2022-08-17T23:40:06.966Z,100088.00
2022-08-17T23:44:13.802Z,100091.72
2022-08-17T23:48:28.426Z,100098.84
2022-08-17T23:52:41.621Z,100097.19
2022-08-17T23:56:49.471Z,100096.34
